knx-user-forum.de alexa rank chart, knx-user-forum.de alexa rank daily changes

knx-user-forum.de alexa rank chart, knx-user-forum.de alexa rank daily changes

knx-user-forum.de
Actual rank:
135 244

RANK HISTORY

Date Rank Diff
2017/04/23 135 244 -2 710
2017/04/22 137 954 -1 969
2017/04/21 139 923 +5 513
2017/04/20 134 410 +1 177
2017/04/19 133 233 -203
2017/04/18 133 436 -198
2017/04/17 133 634 +2 284
2017/04/16 131 350 +798
2017/04/15 130 552 +1 917
2017/04/14 128 635 +1 369
2017/04/13 127 266 +819
2017/04/12 126 447 +2 510
2017/04/11 123 937 -902
2017/04/10 124 839 +1 250
2017/04/09 123 589 +2 383
2017/04/08 121 206 +30
2017/04/07 121 176 -185
2017/04/06 121 361 -2 573
2017/04/05 123 934 +87
2017/04/04 123 847 -2 620
2017/04/03 126 467 -2 479
2017/04/02 128 946 +1 382
2017/04/01 127 564 +855
2017/03/31 126 709 +997
2017/03/30 125 712 +1 054
2017/03/29 124 658 -647
2017/03/28 125 305 +46
2017/03/27 125 259 -1 103
2017/03/26 126 362 +133
2017/03/25 126 229 -784
2017/03/24 127 013 -3 808
2017/03/23 130 821 -697
2017/03/22 131 518 +3 057
2017/03/21 128 461 -4 562
2017/03/20 133 023 -350
2017/03/19 133 373 +1 048
2017/03/18 132 325 +90
2017/03/17 132 235 -894
2017/03/16 133 129 -1 310
2017/03/15 134 439 -2 872
2017/03/14 137 311 -2 481
2017/03/13 139 792 +24
2017/03/12 139 768 +287
2017/03/11 139 481 +6 806
2017/03/10 132 675 -173
2017/03/09 132 848 +1 627
2017/03/08 131 221 -6 233
2017/03/07 137 454 +6 252
2017/03/06 131 202 +746
2017/03/01 130 456 +5 802
2017/02/28 124 654 +2 005
2017/02/27 122 649 +1 255
2017/02/26 121 394 +906
2017/02/25 120 488 -723
2017/02/24 121 211 -297
2017/02/23 121 508 +310
2017/02/22 121 198 -1 346
2017/02/21 122 544

WIDGET FOR YOUR SITE

DOMAINS WITH THE NEAREST RANK

Domain Rank
hr.ge 135 239
scootle.edu.au 135 240
childcare.co.uk 135 241
bianchi.com 135 242
woool123.com 135 243
knx-user-forum.de 135 244
spacedaily.com 135 245
filmetraduseonline.ro 135 246
muvilo.co 135 247
casperjs.org 135 248
vertutele.com 135 249

DOMAINS WITH THE NEAREST RANK BY TLD .de

Domain Rank
brillen.de 135 121
moderne-hausfrau.de 135 136
casando.de 135 162
ls-tc.de 135 206
bofrost.de 135 214
knx-user-forum.de 135 244
business-wissen.de 135 304
degussa-goldhandel.de 135 365
bsb-muenchen.de 135 435
needforseat.de 135 469
shoot-club.de 135 486